Terminal Aerodrome Forecast
Issued by NWS

Home | Current Version | Previous Version | Graphics & Text | Print | Product List | Glossary On
Versions: 1 2 3 4 5 6 7 8 9 10 11 12 13 14
599
FTUS43 KTOP 221120
TAFMHK
TAF
KMHK 221120Z 2212/2312 17008KT P6SM BKN180
     FM221500 19011G19KT P6SM SCT180
     FM230000 17006KT P6SM FEW180=

USA.gov is the U.S. government's official web portal to all federal, state and local government web resources and services.